73100 VNLK-VNLK
Flight info
| Callsign | 73100 |
|---|---|
| Flight time | 0h 1m |
| Altitude | 10000 |
| Route | VNLK/VNLK |
| Aircraft | DA40/L-L/S |
Departure
| Time | 2026-04-06 15:34 |
|---|---|
| Airport | Tenzing-Hillary Airport (VNLK) |
Arrival
| Time | 2026-04-06 15:36 |
|---|---|
| Airport | Tenzing-Hillary Airport (VNLK) |
| Time | Latitude | Longitude | Altitude | Speed | Heading |
|---|---|---|---|---|---|
| 2026-04-06 15:20 | 27.68754 | 86.73204 | 9403 ft | 3 kts | 21° |
| 2026-04-06 15:20 | 27.68763 | 86.73204 | 9274 ft | 0 kts | 335° |
| 2026-04-06 15:21 | 27.68764 | 86.73202 | 9271 ft | 1 kts | 315° |
| 2026-04-06 15:21 | 27.68766 | 86.73196 | 9465 ft | 0 kts | 291° |
| 2026-04-06 15:21 | 27.68774 | 86.73144 | 9458 ft | 19 kts | 253° |
| 2026-04-06 15:21 | 27.68584 | 86.72778 | 9364 ft | 78 kts | 238° |
| 2026-04-06 15:22 | 27.68164 | 86.72308 | 9381 ft | 103 kts | 203° |
| 2026-04-06 15:22 | 27.67339 | 86.72061 | 9174 ft | 137 kts | 187° |
| 2026-04-06 15:22 | 27.66543 | 86.71636 | 9223 ft | 135 kts | 240° |
| 2026-04-06 15:22 | 27.66838 | 86.70786 | 9114 ft | 107 kts | 352° |
| 2026-04-06 15:23 | 27.67499 | 86.71081 | 9221 ft | 108 kts | 40° |
| 2026-04-06 15:23 | 27.67967 | 86.71733 | 9212 ft | 104 kts | 56° |
| 2026-04-06 15:23 | 27.68366 | 86.72381 | 9209 ft | 97 kts | 56° |
| 2026-04-06 15:23 | 27.68681 | 86.72951 | 9355 ft | 63 kts | 60° |
| 2026-04-06 15:24 | 27.68771 | 86.73126 | 9454 ft | 8 kts | 57° |
| 2026-04-06 15:24 | 27.68785 | 86.73152 | 9456 ft | 0 kts | 69° |
| 2026-04-06 15:24 | 27.68780 | 86.73172 | 9455 ft | 3 kts | 132° |
| 2026-04-06 15:24 | 27.68772 | 86.73179 | 9456 ft | 0 kts | 139° |
| 2026-04-06 15:26 | 27.68762 | 86.73181 | 9455 ft | 5 kts | 180° |
| 2026-04-06 15:27 | 27.68764 | 86.73159 | 9456 ft | 10 kts | 329° |
| 2026-04-06 15:27 | 27.68695 | 86.72976 | 9373 ft | 64 kts | 239° |
| 2026-04-06 15:27 | 27.68239 | 86.72556 | 9315 ft | 102 kts | 190° |
| 2026-04-06 15:27 | 27.67519 | 86.72424 | 9550 ft | 102 kts | 188° |
| 2026-04-06 15:28 | 27.66948 | 86.72158 | 9767 ft | 101 kts | 253° |
| 2026-04-06 15:28 | 27.67008 | 86.71563 | 9608 ft | 119 kts | 292° |
| 2026-04-06 15:29 | 27.67138 | 86.71279 | 9603 ft | 125 kts | 304° |
| 2026-04-06 15:30 | 27.67200 | 86.71187 | 9558 ft | 131 kts | 311° |
| 2026-04-06 15:30 | 27.67877 | 86.70883 | 9654 ft | 124 kts | 27° |
| 2026-04-06 15:30 | 27.68204 | 86.71742 | 9481 ft | 121 kts | 87° |
| 2026-04-06 15:30 | 27.68469 | 86.72544 | 9245 ft | 98 kts | 59° |
| 2026-04-06 15:31 | 27.68732 | 86.73049 | 9414 ft | 48 kts | 60° |
| 2026-04-06 15:31 | 27.68802 | 86.73181 | 9459 ft | 0 kts | 53° |
| 2026-04-06 15:31 | 27.68803 | 86.73184 | 9459 ft | 3 kts | 79° |
| 2026-04-06 15:32 | 27.68798 | 86.73193 | 9461 ft | 1 kts | 140° |
| 2026-04-06 15:32 | 27.68796 | 86.73196 | 9461 ft | 0 kts | 105° |
| 2026-04-06 15:32 | 27.68798 | 86.73180 | 9460 ft | 0 kts | 240° |
| 2026-04-06 15:32 | 27.68761 | 86.73089 | 9438 ft | 40 kts | 247° |
| 2026-04-06 15:33 | 27.68673 | 86.72932 | 9346 ft | 5 kts | 347° |
| 2026-04-06 15:33 | 27.68662 | 86.72934 | 9339 ft | 6 kts | 309° |
| 2026-04-06 15:33 | 27.68557 | 86.72701 | 9225 ft | 72 kts | 238° |
| 2026-04-06 15:33 | 27.68035 | 86.72453 | 9253 ft | 95 kts | 180° |
| 2026-04-06 15:34 | 27.67367 | 86.72331 | 9371 ft | 108 kts | 204° |
| 2026-04-06 15:34 | 27.66623 | 86.71936 | 9402 ft | 125 kts | 210° |
| 2026-04-06 15:34 | 27.65979 | 86.71416 | 9844 ft | 104 kts | 223° |
| 2026-04-06 15:34 | 27.65694 | 86.70767 | 10144 ft | 100 kts | 281° |
| 2026-04-06 15:35 | 27.66238 | 86.70242 | 10178 ft | 120 kts | 350° |
| 2026-04-06 15:35 | 27.67118 | 86.70481 | 10111 ft | 145 kts | 31° |
| 2026-04-06 15:35 | 27.67788 | 86.71288 | 9822 ft | 139 kts | 58° |
| 2026-04-06 15:35 | 27.68253 | 86.72122 | 9393 ft | 119 kts | 58° |
| 2026-04-06 15:36 | 27.68620 | 86.72833 | 9287 ft | 83 kts | 60° |
| 2026-04-06 15:36 | 27.68758 | 86.73100 | 9450 ft | 8 kts | 56° |
| 2026-04-06 15:36 | 27.68764 | 86.73108 | 9450 ft | 3 kts | 43° |
| 2026-04-06 15:36 | 27.68765 | 86.73195 | 9455 ft | 3 kts | 112° |
| 2026-04-06 15:37 | 27.68765 | 86.73196 | 9455 ft | 0 kts | 113° |